This demonstration page uses our WeatherBlox Daily Observations layout. Learn more.

41.55636, -103.73856

Hourly Observations for August 1, 2016

Temp ( °F °C ) Dew Point ( °F °C ) Humidity (%) Winds ( mph kmh ) Pressure ( in mb ) Visibility ( mi km ) Precip ( " mm )
12:53 am 00:53 Clear 76 24.4 54 12.2 47 47 VRB 6 9 29.75 1008 10 16.0934 0 0
1:53 am 01:53 Clear 76 24.4 52 11.1 43 43 SW 9 15 29.72 1006 10 16.0934 0 0
2:53 am 02:53 Clear 71 21.7 57 13.9 61 61 NNW 7 11 29.72 1006 10 16.0934 0 0
3:53 am 03:53 Clear 71 21.7 56 13.3 59 59 WSW 3 6 29.72 1007 10 16.0934 0 0
4:53 am 04:53 Clear 69 20.6 56 13.3 63 63 N 8 13 29.72 1007 7 11.26538 0 0
5:53 am 05:53 Sunny 66 18.9 55 12.8 68 68 NW 6 9 29.75 1007 10 16.0934 0 0
6:53 am 06:53 Sunny 70 21.1 56 13.3 61 61 NNW 7 11 29.77 1008 10 16.0934 0 0
7:53 am 07:53 Sunny 75 23.9 56 13.3 52 52 NW 6 9 29.78 1009 10 16.0934 0 0
8:53 am 08:53 Sunny 81 27.2 54 12.2 39 39 W 8 13 29.79 1009 10 16.0934 0 0
9:53 am 09:53 Sunny 85 29.4 53 11.7 33 33 W 8 13 29.8 1009 10 16.0934 0 0
10:53 am 10:53 Sunny 88 31.1 53 11.7 30 30 NW 9 15 29.8 1009 10 16.0934 0 0
11:53 am 11:53 Sunny 91 32.8 51 10.6 26 26 NW 8 13 29.8 1009 10 16.0934 0 0
12:53 pm 12:53 Sunny 93 33.9 53 11.7 26 26 undefined N/A 29.79 1009 10 16.0934 0 0
1:53 pm 13:53 Sunny 94 34.4 53 11.7 25 25 S 7 11 29.78 1008 10 16.0934 0 0
2:53 pm 14:53 Sunny 94 34.4 52 11.1 24 24 VRB 5 7 29.78 1009 10 16.0934 0 0
3:53 pm 15:53 Sunny 96 35.6 50 10 21 21 N 12 19 29.78 1009 10 16.0934 0 0
4:53 pm 16:53 Sunny 96 35.6 50 10 21 21 NNE 9 15 29.79 1009 10 16.0934 0 0
5:53 pm 17:53 Sunny 91 33 64 18 41 41 ESE 8 13 29.5 999 10 16.0934 0 0
6:53 pm 18:53 Sunny 89 31.7 55 12.8 31 31 NNE 9 15 29.82 1010 10 16.0934 0 0
7:53 pm 19:53 Sunny 80 26.7 57 13.9 45 45 NE 9 15 29.84 1011 10 16.0934 0 0
8:53 pm 20:53 Clear 77 25 61 16.1 58 58 NNE 9 15 29.87 1012 10 16.0934 0 0
9:53 pm 21:53 Clear 75 23.9 61 16.1 62 62 ENE 9 15 29.9 1013 10 16.0934 0 0
10:53 pm 22:53 Clear 74 23.3 64 17.8 71 71 NE 7 11 29.91 1013 10 16.0934 0 0
11:53 pm 23:53 Clear 72 22.2 64 17.8 76 76 Calm 29.93 1013 10 16.0934 0 0

Powered by AerisWeather